Time;durP1;ratioP1;P1;durP2;ratioP2;P2;SDS_P1;SDS_P2;PMS_P1;PMS_P2;Temp;Humidity;BMP_temperature;BMP_pressure;BME280_temperature;BME280_humidity;BME280_pressure;Samples;Min_cycle;Max_cycle;Signal;HPM_P1;HPM_P2
2023/06/01 00:01:14;;;;;;;;;;;;;;;13.83;100.00;97528.94;110126;1244;69864;-67
2023/06/01 00:03:44;;;;;;;;;;;;;;;13.77;100.00;97525.25;110115;1244;59667;-67
2023/06/01 00:06:12;;;;;;;;;;;;;;;13.72;100.00;97520.27;109826;1245;59747;-67
2023/06/01 00:08:40;;;;;;;;;;;;;;;13.68;100.00;97518.09;110179;1241;71414;-67
2023/06/01 00:11:09;;;;;;;;;;;;;;;13.65;100.00;97517.31;110122;1244;68572;-67
2023/06/01 00:13:39;;;;;;;;;;;;;;;13.60;100.00;97517.95;110110;1241;69405;-67
2023/06/01 00:16:07;;;;;;;;;;;;;;;13.54;100.00;97520.52;110161;1241;59715;-68
2023/06/01 00:18:37;;;;;;;;;;;;;;;13.51;100.00;97523.08;110110;1244;59669;-67
2023/06/01 00:21:06;;;;;;;;;;;;;;;13.49;100.00;97524.77;110137;1244;71195;-67
2023/06/01 00:23:40;;;;;;;;;;;;;;;13.45;100.00;97522.64;110112;1241;69455;-67
2023/06/01 00:26:09;;;;;;;;;;;;;;;13.42;100.00;97523.29;110186;1244;69285;-68
2023/06/01 00:28:39;;;;;;;;;;;;;;;13.34;100.00;97524.16;110170;1244;59696;-68
2023/06/01 00:31:07;;;;;;;;;;;;;;;13.27;100.00;97523.30;110148;1241;60137;-68
2023/06/01 00:33:37;;;;;;;;;;;;;;;13.23;100.00;97523.41;110105;1243;71916;-67
2023/06/01 00:36:09;;;;;;;;;;;;;;;13.19;100.00;97521.94;110085;1243;68480;-69
2023/06/01 00:38:39;;;;;;;;;;;;;;;13.14;100.00;97522.02;110117;1241;68830;-67
2023/06/01 00:41:08;;;;;;;;;;;;;;;13.06;100.00;97519.19;110151;1244;59708;-67
2023/06/01 00:43:37;;;;;;;;;;;;;;;13.00;100.00;97518.09;109826;1245;59604;-69
2023/06/01 00:46:09;;;;;;;;;;;;;;;12.94;100.00;97516.27;109889;1243;71237;-70
2023/06/01 00:48:39;;;;;;;;;;;;;;;12.90;100.00;97521.71;110191;1241;69278;-68
2023/06/01 00:51:09;;;;;;;;;;;;;;;12.85;100.00;97523.73;110162;1243;69351;-69
2023/06/01 00:53:39;;;;;;;;;;;;;;;12.79;100.00;97525.45;110162;1242;59684;-68
2023/06/01 00:56:11;;;;;;;;;;;;;;;12.71;100.00;97525.45;110365;1244;60004;-69
2023/06/01 00:58:42;;;;;;;;;;;;;;;12.64;100.00;97526.23;110295;1244;70997;-68
2023/06/01 01:01:18;;;;;;;;;;;;;;;12.56;100.00;97525.30;110201;1244;69154;-68
2023/06/01 01:03:49;;;;;;;;;;;;;;;12.50;100.00;97523.67;110117;1244;69226;-69
2023/06/01 01:06:22;;;;;;;;;;;;;;;12.46;100.00;97521.02;110129;1242;59736;-67
2023/06/01 01:09:07;;;;;;;;;;;;;;;12.41;100.00;97518.63;110278;1242;59682;-69
2023/06/01 01:11:38;;;;;;;;;;;;;;;12.35;100.00;97520.98;110151;1241;70587;-69
2023/06/01 01:14:14;;;;;;;;;;;;;;;12.30;100.00;97521.25;109872;1246;69258;-68
2023/06/01 01:16:53;;;;;;;;;;;;;;;12.25;100.00;97519.48;110138;1242;69953;-68
2023/06/01 01:19:36;;;;;;;;;;;;;;;12.22;100.00;97522.70;110108;1244;59760;-68
2023/06/01 01:22:24;;;;;;;;;;;;;;;12.21;100.00;97523.17;109787;1246;59709;-68
2023/06/01 01:24:56;;;;;;;;;;;;;;;12.20;100.00;97526.33;110117;1241;71268;-68
2023/06/01 01:27:52;;;;;;;;;;;;;;;12.20;100.00;97524.58;109835;1241;68669;-69
2023/06/01 01:30:23;;;;;;;;;;;;;;;12.18;100.00;97524.39;109733;1243;68386;-69
2023/06/01 01:32:53;;;;;;;;;;;;;;;12.17;100.00;97524.14;109861;1248;59754;-69
2023/06/01 01:35:23;;;;;;;;;;;;;;;12.14;100.00;97526.79;109756;1244;59745;-67
2023/06/01 01:37:53;;;;;;;;;;;;;;;12.09;100.00;97526.50;109868;1247;70630;-67
2023/06/01 01:40:25;;;;;;;;;;;;;;;12.05;100.00;97524.45;110065;1244;69557;-67
2023/06/01 01:42:55;;;;;;;;;;;;;;;11.99;100.00;97521.35;110175;1245;69370;-67
2023/06/01 01:45:24;;;;;;;;;;;;;;;11.95;100.00;97526.02;110136;1241;59689;-68
2023/06/01 01:48:02;;;;;;;;;;;;;;;11.89;100.00;97523.85;110224;1244;59691;-68
2023/06/01 01:50:36;;;;;;;;;;;;;;;11.86;100.00;97524.27;109941;1241;71400;-67
2023/06/01 01:53:08;;;;;;;;;;;;;;;11.86;100.00;97522.55;109903;1246;69404;-68
2023/06/01 01:55:39;;;;;;;;;;;;;;;11.86;100.00;97520.95;109780;1246;69242;-68
2023/06/01 01:58:09;;;;;;;;;;;;;;;11.85;100.00;97524.38;109744;1244;59977;-67
2023/06/01 02:00:39;;;;;;;;;;;;;;;11.85;100.00;97522.80;109896;1245;59729;-68
2023/06/01 02:03:18;;;;;;;;;;;;;;;11.84;100.00;97524.06;110169;1241;70656;-67
2023/06/01 02:05:47;;;;;;;;;;;;;;;11.83;100.00;97523.10;110162;1241;67525;-67
2023/06/01 02:08:15;;;;;;;;;;;;;;;11.81;100.00;97526.56;109903;1245;69450;-68
2023/06/01 02:10:44;;;;;;;;;;;;;;;11.77;100.00;97528.25;110126;1241;59698;-68
2023/06/01 02:13:13;;;;;;;;;;;;;;;11.72;100.00;97527.73;110093;1244;59737;-68
2023/06/01 02:15:42;;;;;;;;;;;;;;;11.69;100.00;97526.58;110178;1241;72101;-68
2023/06/01 02:18:11;;;;;;;;;;;;;;;11.65;100.00;97526.53;110163;1241;69349;-67
2023/06/01 02:20:41;;;;;;;;;;;;;;;11.62;100.00;97526.93;110043;1243;69217;-68
2023/06/01 02:23:10;;;;;;;;;;;;;;;11.59;100.00;97529.06;110161;1245;59660;-68
2023/06/01 02:25:39;;;;;;;;;;;;;;;11.58;100.00;97527.94;109893;1245;59662;-68
2023/06/01 02:28:10;;;;;;;;;;;;;;;11.57;100.00;97529.96;110078;1241;72040;-68
2023/06/01 02:30:38;;;;;;;;;;;;;;;11.54;100.00;97528.70;110100;1245;69061;-68
2023/06/01 02:33:06;;;;;;;;;;;;;;;11.49;100.00;97525.98;110166;1244;68624;-68
2023/06/01 02:35:35;;;;;;;;;;;;;;;11.43;100.00;97524.66;110126;1241;59725;-68
2023/06/01 02:38:05;;;;;;;;;;;;;;;11.40;100.00;97520.89;110121;1241;59776;-68
2023/06/01 02:40:34;;;;;;;;;;;;;;;11.37;100.00;97524.04;110115;1244;71981;-68
2023/06/01 02:43:03;;;;;;;;;;;;;;;11.37;100.00;97520.59;110134;1241;69226;-66
2023/06/01 02:45:32;;;;;;;;;;;;;;;11.36;100.00;97518.91;110134;1244;69268;-67
2023/06/01 02:48:01;;;;;;;;;;;;;;;11.33;100.00;97522.30;109766;1244;59793;-67
2023/06/01 02:50:30;;;;;;;;;;;;;;;11.32;100.00;97523.95;109943;1244;59718;-67
2023/06/01 02:52:59;;;;;;;;;;;;;;;11.29;100.00;97522.40;109890;1245;71416;-67
2023/06/01 02:55:27;;;;;;;;;;;;;;;11.29;100.00;97522.80;110134;1244;69759;-70
2023/06/01 02:58:21;;;;;;;;;;;;;;;11.29;100.00;97524.00;109766;1248;68342;-66
2023/06/01 03:01:01;;;;;;;;;;;;;;;11.30;100.00;97525.13;110080;1241;59766;-68
2023/06/01 03:03:30;;;;;;;;;;;;;;;11.32;100.00;97528.11;110068;1244;59689;-69
2023/06/01 03:05:58;;;;;;;;;;;;;;;11.31;100.00;97523.44;109753;1246;71695;-69
2023/06/01 03:08:48;;;;;;;;;;;;;;;11.30;100.00;97524.94;109539;1243;69592;-69
2023/06/01 03:11:36;;;;;;;;;;;;;;;11.30;100.00;97524.98;110057;1244;68544;-68
2023/06/01 03:14:09;;;;;;;;;;;;;;;11.31;100.00;97526.30;109846;1245;59674;-68
2023/06/01 03:16:39;;;;;;;;;;;;;;;11.32;100.00;97526.20;109887;1243;59682;-68
2023/06/01 03:19:16;;;;;;;;;;;;;;;11.34;100.00;97522.55;110065;1244;71672;-69
2023/06/01 03:21:51;;;;;;;;;;;;;;;11.35;100.00;97522.79;110165;1241;68465;-69
2023/06/01 03:24:27;;;;;;;;;;;;;;;11.35;100.00;97525.92;109894;1246;69255;-68
2023/06/01 03:27:00;;;;;;;;;;;;;;;11.36;100.00;97524.66;109908;1241;59721;-69
2023/06/01 03:29:30;;;;;;;;;;;;;;;11.36;100.00;97525.36;109898;1242;59695;-69
2023/06/01 03:32:00;;;;;;;;;;;;;;;11.39;100.00;97526.55;110187;1243;71336;-69
2023/06/01 03:34:29;;;;;;;;;;;;;;;11.43;100.00;97529.55;110020;1241;68738;-69
2023/06/01 03:36:57;;;;;;;;;;;;;;;11.46;100.00;97530.19;110107;1245;69525;-68
2023/06/01 03:39:25;;;;;;;;;;;;;;;11.51;100.00;97529.85;110215;1244;59757;-68
2023/06/01 03:41:54;;;;;;;;;;;;;;;11.58;100.00;97528.65;109838;1242;59710;-68
2023/06/01 03:44:22;;;;;;;;;;;;;;;11.65;100.00;97533.31;109972;1243;72096;-68
2023/06/01 03:46:51;;;;;;;;;;;;;;;11.70;100.00;97534.02;110173;1244;69256;-68
2023/06/01 03:49:20;;;;;;;;;;;;;;;11.73;100.00;97535.52;110139;1244;69346;-68
2023/06/01 03:51:48;;;;;;;;;;;;;;;11.80;100.00;97536.02;110128;1244;59698;-68
2023/06/01 03:54:17;;;;;;;;;;;;;;;11.89;100.00;97536.10;110218;1246;59741;-68
2023/06/01 03:56:46;;;;;;;;;;;;;;;11.98;100.00;97533.48;110187;1244;71318;-68
2023/06/01 03:59:14;;;;;;;;;;;;;;;12.08;100.00;97529.54;109801;1245;69281;-69
2023/06/01 04:01:43;;;;;;;;;;;;;;;12.20;100.00;97528.83;109888;1246;69219;-68
2023/06/01 04:04:13;;;;;;;;;;;;;;;12.32;100.00;97523.55;110100;1244;59696;-70
2023/06/01 04:06:44;;;;;;;;;;;;;;;12.43;100.00;97524.60;109995;1246;59694;-67
2023/06/01 04:09:14;;;;;;;;;;;;;;;12.52;100.00;97521.92;110148;1242;71306;-68
2023/06/01 04:11:43;;;;;;;;;;;;;;;12.62;100.00;97523.92;110008;1244;68617;-68
2023/06/01 04:14:12;;;;;;;;;;;;;;;12.71;100.00;97522.71;110186;1241;69282;-68
2023/06/01 04:16:41;;;;;;;;;;;;;;;12.80;100.00;97521.98;109940;1246;59722;-70
2023/06/01 04:19:10;;;;;;;;;;;;;;;12.88;100.00;97522.39;110238;1244;59625;-67
2023/06/01 04:21:39;;;;;;;;;;;;;;;12.99;100.00;97518.16;109813;1242;71425;-68
2023/06/01 04:24:07;;;;;;;;;;;;;;;13.10;100.00;97514.64;110045;1241;69109;-71
2023/06/01 04:26:36;;;;;;;;;;;;;;;13.21;100.00;97516.03;109959;1245;68770;-69
2023/06/01 04:29:05;;;;;;;;;;;;;;;13.30;100.00;97515.55;110161;1243;59671;-69
2023/06/01 04:31:32;;;;;;;;;;;;;;;13.40;100.00;97515.06;109922;1241;59734;-70
2023/06/01 04:34:01;;;;;;;;;;;;;;;13.47;100.00;97515.47;109979;1242;70868;-70
2023/06/01 04:36:32;;;;;;;;;;;;;;;13.58;100.00;97511.60;109867;1245;69225;-69
2023/06/01 04:39:04;;;;;;;;;;;;;;;13.72;100.00;97514.33;109957;1246;69953;-68
2023/06/01 04:41:32;;;;;;;;;;;;;;;13.87;100.00;97516.19;110170;1243;59738;-68
2023/06/01 04:44:06;;;;;;;;;;;;;;;14.04;100.00;97518.08;109893;1245;59730;-68
2023/06/01 04:46:39;;;;;;;;;;;;;;;14.22;100.00;97518.97;110172;1241;71458;-68
2023/06/01 04:49:11;;;;;;;;;;;;;;;14.38;100.00;97516.42;109795;1245;69876;-68
2023/06/01 04:51:40;;;;;;;;;;;;;;;14.48;100.00;97519.03;109983;1246;69816;-69
2023/06/01 04:54:09;;;;;;;;;;;;;;;14.61;100.00;97512.72;109772;1244;59705;-68
2023/06/01 04:56:37;;;;;;;;;;;;;;;14.77;100.00;97513.37;109764;1243;59734;-68
2023/06/01 04:59:05;;;;;;;;;;;;;;;14.97;100.00;97508.80;110128;1244;71280;-68
2023/06/01 05:01:34;;;;;;;;;;;;;;;15.16;100.00;97505.15;110175;1242;69262;-67
2023/06/01 05:04:03;;;;;;;;;;;;;;;15.42;100.00;97507.20;110184;1241;68325;-68
2023/06/01 05:06:30;;;;;;;;;;;;;;;15.73;100.00;97510.02;110209;1241;59747;-69
2023/06/01 05:08:58;;;;;;;;;;;;;;;16.02;100.00;97507.67;110162;1244;59676;-68
2023/06/01 05:11:27;;;;;;;;;;;;;;;16.48;100.00;97512.11;110134;1243;71991;-68
2023/06/01 05:14:01;;;;;;;;;;;;;;;17.05;100.00;97508.52;110165;1244;69959;-68
2023/06/01 05:16:31;;;;;;;;;;;;;;;17.55;95.55;97507.30;110145;1241;69815;-68
2023/06/01 05:19:00;;;;;;;;;;;;;;;17.99;95.94;97511.07;110182;1243;59747;-68
2023/06/01 05:21:28;;;;;;;;;;;;;;;18.31;93.24;97511.29;110183;1241;60097;-68
2023/06/01 05:23:56;;;;;;;;;;;;;;;18.55;88.22;97511.93;110034;1244;71687;-68
2023/06/01 05:26:24;;;;;;;;;;;;;;;18.62;84.64;97513.04;110081;1241;68803;-68
2023/06/01 05:28:51;;;;;;;;;;;;;;;18.82;87.15;97515.89;109874;1245;68405;-70
2023/06/01 05:31:20;;;;;;;;;;;;;;;18.90;83.11;97515.45;109929;1243;59707;-68
2023/06/01 05:33:52;;;;;;;;;;;;;;;18.82;80.04;97516.98;110088;1244;59640;-68
2023/06/01 05:36:21;;;;;;;;;;;;;;;18.90;82.20;97514.92;110119;1244;71324;-66
2023/06/01 05:38:49;;;;;;;;;;;;;;;18.94;82.15;97518.02;110179;1241;68835;-69
2023/06/01 05:41:17;;;;;;;;;;;;;;;18.96;81.68;97515.71;110168;1244;69395;-68
2023/06/01 05:43:45;;;;;;;;;;;;;;;18.88;79.51;97514.73;110157;1245;59764;-68
2023/06/01 05:46:13;;;;;;;;;;;;;;;18.75;80.50;97511.88;110163;1243;59684;-69
2023/06/01 05:48:42;;;;;;;;;;;;;;;18.57;81.46;97509.48;110200;1244;71370;-69
2023/06/01 05:51:12;;;;;;;;;;;;;;;18.47;82.00;97512.75;110216;1244;69127;-67
2023/06/01 05:53:41;;;;;;;;;;;;;;;18.42;83.27;97508.92;110099;1243;69290;-70
2023/06/01 05:56:10;;;;;;;;;;;;;;;18.42;81.76;97509.98;109843;1246;59714;-69
2023/06/01 05:58:40;;;;;;;;;;;;;;;18.45;82.38;97511.95;110159;1241;59669;-69
2023/06/01 06:01:10;;;;;;;;;;;;;;;18.51;82.58;97514.55;110148;1241;71984;-68
2023/06/01 06:03:38;;;;;;;;;;;;;;;18.68;81.13;97521.79;110174;1244;69420;-68
2023/06/01 06:06:05;;;;;;;;;;;;;;;18.79;80.92;97525.52;110154;1244;69804;-68
2023/06/01 06:08:33;;;;;;;;;;;;;;;19.08;80.83;97524.98;110116;1245;59676;-69
2023/06/01 06:11:01;;;;;;;;;;;;;;;19.38;80.12;97523.40;110163;1244;59696;-69
2023/06/01 06:13:29;;;;;;;;;;;;;;;19.72;76.85;97525.37;110128;1244;71912;-68
2023/06/01 06:15:56;;;;;;;;;;;;;;;19.96;73.57;97520.77;110155;1245;70680;-69
2023/06/01 06:18:25;;;;;;;;;;;;;;;20.18;71.00;97518.79;110133;1241;70888;-67
2023/06/01 06:20:52;;;;;;;;;;;;;;;20.34;69.16;97522.17;110155;1244;59747;-68
2023/06/01 06:23:21;;;;;;;;;;;;;;;20.50;68.93;97520.35;110097;1243;60159;-68
2023/06/01 06:25:49;;;;;;;;;;;;;;;20.61;68.68;97523.89;110161;1244;70863;-69
2023/06/01 06:28:17;;;;;;;;;;;;;;;20.79;68.00;97524.80;110091;1244;69450;-69
2023/06/01 06:30:45;;;;;;;;;;;;;;;21.44;68.59;97526.27;110106;1244;69463;-68
2023/06/01 06:33:14;;;;;;;;;;;;;;;21.78;64.06;97521.55;110199;1245;59691;-68
2023/06/01 06:35:43;;;;;;;;;;;;;;;21.98;63.61;97519.21;110124;1244;59693;-67
2023/06/01 06:38:12;;;;;;;;;;;;;;;22.13;61.52;97519.38;110195;1241;71445;-68
2023/06/01 06:40:39;;;;;;;;;;;;;;;22.31;62.24;97520.47;110357;1244;69377;-68
2023/06/01 06:43:06;;;;;;;;;;;;;;;22.84;62.87;97523.42;110311;1244;69868;-69
2023/06/01 06:45:34;;;;;;;;;;;;;;;23.07;59.86;97525.66;110138;1245;59696;-68
2023/06/01 06:48:02;;;;;;;;;;;;;;;23.28;60.46;97524.06;110641;1244;60774;-69
2023/06/01 06:50:30;;;;;;;;;;;;;;;23.26;57.40;97526.13;110207;1245;72084;-68
2023/06/01 06:53:00;;;;;;;;;;;;;;;23.34;57.99;97528.52;110131;1241;68529;-68
2023/06/01 06:55:28;;;;;;;;;;;;;;;23.76;57.43;97528.05;110150;1243;69258;-68
2023/06/01 06:57:57;;;;;;;;;;;;;;;24.10;57.03;97523.63;110117;1244;59773;-68
2023/06/01 07:00:26;;;;;;;;;;;;;;;24.32;54.05;97517.79;110119;1243;59683;-70
2023/06/01 07:02:55;;;;;;;;;;;;;;;24.19;54.01;97517.85;110119;1244;71917;-68
2023/06/01 07:05:23;;;;;;;;;;;;;;;23.87;53.92;97518.42;110174;1244;69223;-68
2023/06/01 07:07:51;;;;;;;;;;;;;;;23.28;55.28;97519.17;110186;1244;68925;-68
2023/06/01 07:10:19;;;;;;;;;;;;;;;23.13;55.92;97520.95;110127;1244;59745;-69
2023/06/01 07:12:47;;;;;;;;;;;;;;;23.19;55.78;97518.59;110105;1244;59719;-69
2023/06/01 07:15:16;;;;;;;;;;;;;;;23.10;55.69;97512.54;110401;1241;71804;-68
2023/06/01 07:17:44;;;;;;;;;;;;;;;23.55;56.10;97507.80;110195;1243;69933;-68
2023/06/01 07:20:12;;;;;;;;;;;;;;;24.11;54.11;97505.73;110141;1245;69883;-68
2023/06/01 07:22:40;;;;;;;;;;;;;;;24.50;52.19;97504.32;110127;1244;60111;-68
2023/06/01 07:25:09;;;;;;;;;;;;;;;24.88;50.98;97504.60;110119;1243;59685;-69
2023/06/01 07:27:37;;;;;;;;;;;;;;;25.17;49.41;97505.30;109793;1245;71337;-69
2023/06/01 07:30:07;;;;;;;;;;;;;;;25.34;48.88;97502.36;110132;1241;68652;-68
2023/06/01 07:32:34;;;;;;;;;;;;;;;25.42;48.51;97499.44;110111;1245;69871;-67
2023/06/01 07:35:06;;;;;;;;;;;;;;;25.47;48.58;97496.31;110125;1244;59686;-67
2023/06/01 07:37:33;;;;;;;;;;;;;;;25.89;47.59;97496.91;109842;1243;59747;-69
2023/06/01 07:40:01;;;;;;;;;;;;;;;26.23;47.46;97495.71;110228;1244;71253;-68
2023/06/01 07:42:28;;;;;;;;;;;;;;;25.99;44.93;97493.67;110187;1244;69132;-68
2023/06/01 07:44:56;;;;;;;;;;;;;;;25.56;44.40;97489.45;110084;1245;69378;-68
2023/06/01 07:47:25;;;;;;;;;;;;;;;25.49;45.52;97488.24;110130;1244;59749;-67
2023/06/01 07:49:53;;;;;;;;;;;;;;;25.73;45.89;97490.67;110129;1244;59639;-67
2023/06/01 07:52:21;;;;;;;;;;;;;;;25.76;45.18;97490.99;110208;1241;71964;-67
2023/06/01 07:54:49;;;;;;;;;;;;;;;25.76;44.56;97489.75;110532;1244;69886;-68
2023/06/01 07:57:17;;;;;;;;;;;;;;;26.06;43.49;97486.97;110176;1244;70014;-69
2023/06/01 07:59:45;;;;;;;;;;;;;;;26.69;43.66;97489.43;110155;1244;59758;-69
2023/06/01 08:02:13;;;;;;;;;;;;;;;27.02;42.02;97484.67;110121;1244;59730;-68
2023/06/01 08:04:41;;;;;;;;;;;;;;;27.39;41.65;97483.66;110118;1243;72130;-69
2023/06/01 08:07:12;;;;;;;;;;;;;;;26.79;39.09;97478.58;109809;1248;69748;-68
2023/06/01 08:09:39;;;;;;;;;;;;;;;26.04;41.20;97476.05;110289;1245;69747;-68
2023/06/01 08:12:08;;;;;;;;;;;;;;;26.37;41.45;97472.29;109773;1245;59743;-68
2023/06/01 08:14:36;;;;;;;;;;;;;;;26.70;40.60;97473.59;109825;1246;59687;-68
2023/06/01 08:17:06;;;;;;;;;;;;;;;27.19;40.40;97470.50;110074;1243;71398;-69
2023/06/01 08:19:35;;;;;;;;;;;;;;;27.32;39.53;97469.37;110133;1244;69798;-70
2023/06/01 08:22:06;;;;;;;;;;;;;;;27.49;39.29;97468.62;109850;1242;69824;-69
2023/06/01 08:24:35;;;;;;;;;;;;;;;27.75;39.50;97465.93;110164;1245;59698;-68
2023/06/01 08:27:15;;;;;;;;;;;;;;;28.19;38.66;97462.06;110211;1244;59647;-68
2023/06/01 08:29:45;;;;;;;;;;;;;;;28.27;38.75;97460.02;110148;1245;70537;-70
2023/06/01 08:32:13;;;;;;;;;;;;;;;28.17;38.90;97459.59;110077;1246;69345;-69
2023/06/01 08:34:42;;;;;;;;;;;;;;;28.04;37.63;97456.02;110132;1244;68422;-69
2023/06/01 08:37:10;;;;;;;;;;;;;;;27.52;37.31;97456.94;110168;1243;59695;-67
2023/06/01 08:39:38;;;;;;;;;;;;;;;26.35;38.99;97456.78;110176;1241;59650;-68
2023/06/01 08:42:06;;;;;;;;;;;;;;;27.15;39.35;97454.11;110199;1241;72083;-68
2023/06/01 08:44:37;;;;;;;;;;;;;;;27.23;39.27;97452.73;109921;1243;69456;-69
2023/06/01 08:47:05;;;;;;;;;;;;;;;27.71;37.94;97449.87;110093;1244;68552;-68
2023/06/01 08:49:34;;;;;;;;;;;;;;;27.03;38.51;97447.98;110307;1242;59812;-68
2023/06/01 08:52:07;;;;;;;;;;;;;;;27.00;38.96;97445.03;110115;1244;59634;-69
2023/06/01 08:54:35;;;;;;;;;;;;;;;27.83;38.70;97437.09;110155;1244;71744;-70
2023/06/01 08:57:07;;;;;;;;;;;;;;;28.05;37.85;97434.39;109871;1245;68180;-69
2023/06/01 08:59:35;;;;;;;;;;;;;;;28.54;37.22;97433.18;110312;1244;69537;-69
2023/06/01 09:02:03;;;;;;;;;;;;;;;28.09;36.92;97429.76;110169;1244;59703;-69
2023/06/01 09:04:37;;;;;;;;;;;;;;;27.08;37.80;97433.68;110141;1241;59700;-69
2023/06/01 09:07:05;;;;;;;;;;;;;;;26.72;38.20;97435.91;110255;1244;71760;-68
2023/06/01 09:09:32;;;;;;;;;;;;;;;27.22;37.30;97429.28;110186;1242;68561;-69
2023/06/01 09:12:18;;;;;;;;;;;;;;;27.25;35.90;97423.13;109784;1243;69217;-69
2023/06/01 09:14:46;;;;;;;;;;;;;;;27.75;36.75;97423.77;109794;1246;59755;-69
2023/06/01 09:17:15;;;;;;;;;;;;;;;27.89;36.42;97421.35;110183;1244;59700;-68
2023/06/01 09:19:44;;;;;;;;;;;;;;;27.10;35.76;97423.30;110142;1244;71345;-69
2023/06/01 09:22:14;;;;;;;;;;;;;;;27.96;36.23;97418.48;110159;1242;68617;-69
2023/06/01 09:24:54;;;;;;;;;;;;;;;28.53;35.24;97416.27;110134;1244;70301;-69
2023/06/01 09:27:22;;;;;;;;;;;;;;;29.13;35.57;97409.67;109778;1243;59688;-69
2023/06/01 09:29:54;;;;;;;;;;;;;;;29.51;33.98;97409.40;110053;1245;59648;-69
2023/06/01 09:32:21;;;;;;;;;;;;;;;29.43;33.92;97405.88;110131;1243;71900;-69
2023/06/01 09:34:50;;;;;;;;;;;;;;;28.82;34.08;97403.81;110154;1244;69609;-69
2023/06/01 09:37:17;;;;;;;;;;;;;;;29.28;34.52;97403.55;110209;1244;68681;-69
2023/06/01 09:39:45;;;;;;;;;;;;;;;29.61;33.88;97396.90;110193;1244;59738;-68
2023/06/01 09:42:12;;;;;;;;;;;;;;;29.81;32.20;97397.56;110240;1241;59661;-69
2023/06/01 09:44:41;;;;;;;;;;;;;;;30.15;32.57;97396.36;110091;1244;71819;-68
2023/06/01 09:47:12;;;;;;;;;;;;;;;30.07;31.64;97391.41;110136;1243;68673;-69
2023/06/01 09:49:40;;;;;;;;;;;;;;;30.01;31.90;97390.77;110125;1245;69815;-69
2023/06/01 09:52:09;;;;;;;;;;;;;;;29.66;32.19;97383.86;110104;1241;59738;-69
2023/06/01 09:54:39;;;;;;;;;;;;;;;29.06;33.91;97383.38;110216;1244;59656;-69
2023/06/01 09:57:08;;;;;;;;;;;;;;;29.11;34.50;97379.63;110153;1242;71873;-69
2023/06/01 09:59:38;;;;;;;;;;;;;;;29.60;33.00;97376.29;110146;1244;69841;-70
2023/06/01 10:02:08;;;;;;;;;;;;;;;29.48;33.35;97375.45;110129;1244;68334;-69
2023/06/01 10:04:38;;;;;;;;;;;;;;;29.79;32.58;97376.02;110200;1245;59740;-70
2023/06/01 10:07:06;;;;;;;;;;;;;;;29.94;32.62;97375.89;109917;1245;59738;-69
2023/06/01 10:09:38;;;;;;;;;;;;;;;30.33;32.36;97377.33;110151;1243;72162;-69
2023/06/01 10:12:06;;;;;;;;;;;;;;;30.60;31.62;97372.44;110186;1244;69276;-68
2023/06/01 10:14:36;;;;;;;;;;;;;;;30.78;32.15;97372.03;110179;1244;69476;-68
2023/06/01 10:17:04;;;;;;;;;;;;;;;31.00;31.84;97365.24;110114;1245;59744;-68
2023/06/01 10:19:32;;;;;;;;;;;;;;;30.79;31.13;97363.34;110161;1245;59701;-70
2023/06/01 10:21:59;;;;;;;;;;;;;;;29.93;31.63;97359.33;110096;1241;72208;-68
2023/06/01 10:24:28;;;;;;;;;;;;;;;30.07;32.14;97359.37;110128;1244;69822;-70
2023/06/01 10:27:07;;;;;;;;;;;;;;;30.01;33.19;97359.77;110137;1245;69789;-68
2023/06/01 10:29:35;;;;;;;;;;;;;;;30.25;33.01;97354.80;110106;1244;59741;-68
2023/06/01 10:32:02;;;;;;;;;;;;;;;29.69;34.87;97351.28;110183;1244;59681;-69
2023/06/01 10:34:39;;;;;;;;;;;;;;;29.59;33.57;97345.39;110188;1245;71466;-68
2023/06/01 10:37:08;;;;;;;;;;;;;;;29.09;34.64;97335.89;110173;1244;69862;-68
2023/06/01 10:39:37;;;;;;;;;;;;;;;28.40;34.46;97337.55;110251;1244;69438;-69
2023/06/01 10:42:13;;;;;;;;;;;;;;;27.98;35.36;97335.41;110110;1245;59737;-68
2023/06/01 10:44:46;;;;;;;;;;;;;;;28.01;35.21;97329.91;109618;1243;696076;-69
2023/06/01 10:47:20;;;;;;;;;;;;;;;28.18;34.98;97321.98;110178;1242;71136;-68
2023/06/01 10:49:50;;;;;;;;;;;;;;;28.25;34.59;97320.29;110141;1242;69855;-68
2023/06/01 10:52:33;;;;;;;;;;;;;;;28.45;34.37;97317.20;110038;1244;69712;-68
2023/06/01 10:55:07;;;;;;;;;;;;;;;28.37;34.51;97311.72;110119;1244;59701;-69
2023/06/01 10:57:38;;;;;;;;;;;;;;;28.74;34.92;97306.85;110124;1241;59699;-69
2023/06/01 11:00:20;;;;;;;;;;;;;;;28.99;34.35;97304.05;110142;1244;72369;-69
2023/06/01 11:02:48;;;;;;;;;;;;;;;29.23;34.57;97298.33;110230;1245;69900;-70
2023/06/01 11:05:38;;;;;;;;;;;;;;;29.28;34.77;97296.67;110136;1244;69906;-68
2023/06/01 11:08:08;;;;;;;;;;;;;;;29.43;33.24;97297.41;110183;1245;59744;-70
2023/06/01 11:10:51;;;;;;;;;;;;;;;29.40;33.24;97291.00;110143;1241;59705;-69
2023/06/01 11:13:27;;;;;;;;;;;;;;;29.49;32.88;97291.29;110118;1244;72581;-68
2023/06/01 11:16:10;;;;;;;;;;;;;;;29.53;32.55;97285.21;110214;1244;69881;-68
2023/06/01 11:19:00;;;;;;;;;;;;;;;29.62;32.89;97286.29;110085;1243;69340;-68
2023/06/01 11:21:28;;;;;;;;;;;;;;;29.65;32.49;97283.02;110103;1244;59658;-69
2023/06/01 11:24:00;;;;;;;;;;;;;;;29.58;32.40;97280.01;110233;1244;59745;-68
2023/06/01 11:26:29;;;;;;;;;;;;;;;29.44;31.78;97279.63;110168;1245;71486;-68
2023/06/01 11:29:10;;;;;;;;;;;;;;;29.30;32.16;97275.68;110139;1244;69713;-70
2023/06/01 11:31:42;;;;;;;;;;;;;;;29.24;31.80;97275.17;110152;1245;69262;-70
2023/06/01 11:34:10;;;;;;;;;;;;;;;29.13;32.38;97269.59;110182;1244;59663;-69
2023/06/01 11:36:42;;;;;;;;;;;;;;;29.07;32.06;97267.46;110141;1245;59688;-69
2023/06/01 11:39:17;;;;;;;;;;;;;;;28.97;31.70;97264.61;110136;1245;71907;-68
2023/06/01 11:41:49;;;;;;;;;;;;;;;28.97;32.56;97260.80;110131;1242;69461;-68
2023/06/01 11:44:17;;;;;;;;;;;;;;;29.05;31.96;97261.25;110160;1241;69276;-70
2023/06/01 11:46:56;;;;;;;;;;;;;;;28.89;32.30;97255.42;110105;1241;59814;-69
2023/06/01 11:49:24;;;;;;;;;;;;;;;28.77;31.92;97255.34;110173;1241;59810;-69
2023/06/01 11:51:53;;;;;;;;;;;;;;;28.86;33.21;97250.77;110168;1244;71350;-69
2023/06/01 11:54:26;;;;;;;;;;;;;;;29.19;32.63;97254.92;110198;1244;69284;-69
2023/06/01 11:56:54;;;;;;;;;;;;;;;29.65;32.70;97247.88;110147;1243;68345;-69
2023/06/01 11:59:28;;;;;;;;;;;;;;;29.99;32.21;97247.25;110079;1244;59670;-68
2023/06/01 12:01:55;;;;;;;;;;;;;;;30.42;31.36;97236.27;110074;1243;59684;-69
2023/06/01 12:04:24;;;;;;;;;;;;;;;30.73;33.54;97234.63;110172;1244;71992;-69
2023/06/01 12:07:03;;;;;;;;;;;;;;;30.89;33.41;97233.63;110147;1244;69313;-69
2023/06/01 12:09:31;;;;;;;;;;;;;;;30.71;33.45;97231.08;110155;1245;70151;-70
2023/06/01 12:11:59;;;;;;;;;;;;;;;30.35;33.47;97227.66;110148;1241;59785;-70
2023/06/01 12:14:27;;;;;;;;;;;;;;;29.82;34.07;97232.79;110144;1245;59737;-69
2023/06/01 12:16:59;;;;;;;;;;;;;;;29.90;33.52;97233.31;110154;1243;71872;-70
2023/06/01 12:19:28;;;;;;;;;;;;;;;30.10;34.43;97228.77;110103;1245;69738;-69
2023/06/01 12:21:57;;;;;;;;;;;;;;;30.41;34.07;97223.47;110136;1245;69876;-69
2023/06/01 12:24:29;;;;;;;;;;;;;;;30.51;34.08;97222.83;110129;1244;60070;-70
2023/06/01 12:26:58;;;;;;;;;;;;;;;30.29;33.97;97219.77;110252;1244;59706;-69
2023/06/01 12:29:35;;;;;;;;;;;;;;;29.93;33.61;97221.95;110188;1244;71374;-68
2023/06/01 12:32:04;;;;;;;;;;;;;;;29.62;34.41;97223.27;110165;1245;69692;-68
2023/06/01 12:34:31;;;;;;;;;;;;;;;29.35;35.25;97227.29;110145;1245;69210;-68
2023/06/01 12:37:10;;;;;;;;;;;;;;;29.05;36.09;97222.80;110130;1245;59702;-69
2023/06/01 12:39:37;;;;;;;;;;;;;;;28.78;36.55;97217.39;110131;1244;59637;-69
2023/06/01 12:42:06;;;;;;;;;;;;;;;28.41;37.09;97217.36;110156;1243;71997;-69
2023/06/01 12:44:33;;;;;;;;;;;;;;;28.34;37.28;97220.23;110197;1244;69191;-69
2023/06/01 12:47:02;;;;;;;;;;;;;;;28.27;38.17;97219.08;110145;1246;69913;-69
2023/06/01 12:49:30;;;;;;;;;;;;;;;28.43;41.64;97220.44;110099;1241;59728;-69